Decoded Metar for KNSE (MILTON in FL, USA) (IATA:NSE) | Meteo·Mobile Aviation Weather
aviador You're here:

KNSE Decoded Metar

MILTON in FL, USA
Report Time2018-11-20 04:45:00
UTC Time2018-11-20 05:29:45
Flight Rules vfr VFR
Wind020° at 03 kt
W.Decomp.*RWY 05: 2.6 kt HW 1.4 kt LCW
RWY 32: 1.4 kt HW 2.6 kt RCW
W.Rank020° ranks 23
Current wind is below 020° avg. (4.7)
Visibility9999 m
Phenomena:N/A
Clouds:Scattered 080 Hf
Broken 110 Hf
Overcast 150 Hf
Expected CloudBase > 400 ft AGL from Temp-Dew spread
Ceiling11,000 ft
Temp13°C (ISA -2)
Dew Point12°C (94% RH)
AAT12.6°C
QNH1019 hPa
Density Alt-7 ft
Elevation200 ft
Report Wrong Elevation
Raw Report
KNSE 200445Z 02003KT 10SM SCT080 BKN110 OVC150 13/12 A3010 RMK
LAST T013330122=

Extra information for KNSE:More info

Metar Taf Metar & Taf Last 4 Metars F.Rules Stats Wind Profile Meteogram Temp Stats Airport Information Weather charts Add Link Nearby VenuesMetar ALERT Operation Metar Decoded Social comments

AIRNAV info for KNSE